sensor_id;sensor_type;location;lat;lon;timestamp;P1;durP1;ratioP1;P2;durP2;ratioP2
79204;SDS011;68632;47.512;19.104;2023-12-20T00:00:52;37.65;;;17.30;;
79204;SDS011;68632;47.512;19.104;2023-12-20T00:01:54;37.50;;;16.15;;
79204;SDS011;68632;47.512;19.104;2023-12-20T00:02:57;40.28;;;16.23;;
79204;SDS011;68632;47.512;19.104;2023-12-20T00:03:59;33.50;;;15.40;;
79204;SDS011;68632;47.512;19.104;2023-12-20T00:05:01;34.20;;;15.20;;
79204;SDS011;68632;47.512;19.104;2023-12-20T00:06:03;36.15;;;14.88;;
79204;SDS011;68632;47.512;19.104;2023-12-20T00:07:05;35.72;;;14.85;;
79204;SDS011;68632;47.512;19.104;2023-12-20T00:08:08;32.83;;;15.52;;
79204;SDS011;68632;47.512;19.104;2023-12-20T00:09:11;33.85;;;15.15;;
79204;SDS011;68632;47.512;19.104;2023-12-20T00:10:13;26.38;;;14.18;;
79204;SDS011;68632;47.512;19.104;2023-12-20T00:11:16;32.85;;;13.63;;
79204;SDS011;68632;47.512;19.104;2023-12-20T00:12:18;34.80;;;14.30;;
79204;SDS011;68632;47.512;19.104;2023-12-20T00:13:20;35.88;;;17.55;;
79204;SDS011;68632;47.512;19.104;2023-12-20T00:14:22;34.05;;;16.38;;
79204;SDS011;68632;47.512;19.104;2023-12-20T00:15:24;31.73;;;14.50;;
79204;SDS011;68632;47.512;19.104;2023-12-20T00:16:26;30.80;;;14.55;;
79204;SDS011;68632;47.512;19.104;2023-12-20T00:17:29;34.20;;;12.43;;
79204;SDS011;68632;47.512;19.104;2023-12-20T00:18:31;31.52;;;14.32;;
79204;SDS011;68632;47.512;19.104;2023-12-20T00:19:33;30.30;;;15.45;;
79204;SDS011;68632;47.512;19.104;2023-12-20T00:20:36;31.10;;;15.00;;
79204;SDS011;68632;47.512;19.104;2023-12-20T00:21:38;41.78;;;16.00;;
79204;SDS011;68632;47.512;19.104;2023-12-20T00:22:40;36.60;;;14.88;;
79204;SDS011;68632;47.512;19.104;2023-12-20T00:23:42;39.30;;;15.82;;
79204;SDS011;68632;47.512;19.104;2023-12-20T00:24:44;37.10;;;17.27;;
79204;SDS011;68632;47.512;19.104;2023-12-20T00:25:47;22.75;;;10.80;;
79204;SDS011;68632;47.512;19.104;2023-12-20T00:26:49;32.35;;;14.55;;
79204;SDS011;68632;47.512;19.104;2023-12-20T00:27:51;34.20;;;14.63;;
79204;SDS011;68632;47.512;19.104;2023-12-20T00:28:54;30.13;;;13.15;;
79204;SDS011;68632;47.512;19.104;2023-12-20T00:29:56;35.88;;;13.93;;
79204;SDS011;68632;47.512;19.104;2023-12-20T00:30:58;39.28;;;15.38;;
79204;SDS011;68632;47.512;19.104;2023-12-20T00:32:01;27.50;;;13.07;;
79204;SDS011;68632;47.512;19.104;2023-12-20T00:33:03;38.28;;;15.35;;
79204;SDS011;68632;47.512;19.104;2023-12-20T00:34:06;34.50;;;13.88;;
79204;SDS011;68632;47.512;19.104;2023-12-20T00:35:08;31.38;;;13.90;;
79204;SDS011;68632;47.512;19.104;2023-12-20T00:36:10;32.80;;;15.05;;
79204;SDS011;68632;47.512;19.104;2023-12-20T00:37:12;34.92;;;14.07;;
79204;SDS011;68632;47.512;19.104;2023-12-20T00:38:15;28.30;;;14.63;;
79204;SDS011;68632;47.512;19.104;2023-12-20T00:39:17;34.70;;;15.27;;
79204;SDS011;68632;47.512;19.104;2023-12-20T00:40:19;32.78;;;14.23;;
79204;SDS011;68632;47.512;19.104;2023-12-20T00:41:22;28.17;;;13.20;;
79204;SDS011;68632;47.512;19.104;2023-12-20T00:42:24;32.42;;;14.65;;
79204;SDS011;68632;47.512;19.104;2023-12-20T00:43:27;32.75;;;15.48;;
79204;SDS011;68632;47.512;19.104;2023-12-20T00:44:29;37.05;;;15.05;;
79204;SDS011;68632;47.512;19.104;2023-12-20T00:45:31;29.88;;;15.02;;
79204;SDS011;68632;47.512;19.104;2023-12-20T00:46:34;37.75;;;15.38;;
79204;SDS011;68632;47.512;19.104;2023-12-20T00:47:36;36.30;;;15.10;;
79204;SDS011;68632;47.512;19.104;2023-12-20T00:48:38;40.08;;;16.58;;
79204;SDS011;68632;47.512;19.104;2023-12-20T00:49:40;38.05;;;15.77;;
79204;SDS011;68632;47.512;19.104;2023-12-20T00:50:42;36.33;;;13.80;;
79204;SDS011;68632;47.512;19.104;2023-12-20T00:51:45;38.88;;;15.52;;
79204;SDS011;68632;47.512;19.104;2023-12-20T00:52:47;40.80;;;18.23;;
79204;SDS011;68632;47.512;19.104;2023-12-20T00:53:50;39.17;;;17.13;;
79204;SDS011;68632;47.512;19.104;2023-12-20T00:54:56;45.08;;;15.60;;
79204;SDS011;68632;47.512;19.104;2023-12-20T00:55:58;41.45;;;16.90;;
79204;SDS011;68632;47.512;19.104;2023-12-20T00:57:01;27.38;;;13.07;;
79204;SDS011;68632;47.512;19.104;2023-12-20T00:58:03;28.67;;;13.20;;
79204;SDS011;68632;47.512;19.104;2023-12-20T00:59:05;30.42;;;14.05;;
79204;SDS011;68632;47.512;19.104;2023-12-20T01:00:07;37.00;;;14.55;;
79204;SDS011;68632;47.512;19.104;2023-12-20T01:01:12;39.03;;;18.10;;
79204;SDS011;68632;47.512;19.104;2023-12-20T01:02:15;38.50;;;17.25;;
79204;SDS011;68632;47.512;19.104;2023-12-20T01:03:17;35.85;;;15.43;;
79204;SDS011;68632;47.512;19.104;2023-12-20T01:04:19;42.55;;;16.77;;
79204;SDS011;68632;47.512;19.104;2023-12-20T01:05:21;38.83;;;16.50;;
79204;SDS011;68632;47.512;19.104;2023-12-20T01:07:28;20.48;;;12.32;;
79204;SDS011;68632;47.512;19.104;2023-12-20T01:08:30;35.90;;;13.32;;
79204;SDS011;68632;47.512;19.104;2023-12-20T01:09:33;36.25;;;15.07;;
79204;SDS011;68632;47.512;19.104;2023-12-20T01:10:35;34.40;;;15.35;;
79204;SDS011;68632;47.512;19.104;2023-12-20T01:11:37;37.20;;;15.90;;
79204;SDS011;68632;47.512;19.104;2023-12-20T01:12:39;39.60;;;16.30;;
79204;SDS011;68632;47.512;19.104;2023-12-20T01:13:42;44.05;;;16.55;;
79204;SDS011;68632;47.512;19.104;2023-12-20T01:14:44;40.55;;;16.40;;
79204;SDS011;68632;47.512;19.104;2023-12-20T01:15:46;38.47;;;15.88;;
79204;SDS011;68632;47.512;19.104;2023-12-20T01:16:49;43.03;;;19.10;;
79204;SDS011;68632;47.512;19.104;2023-12-20T01:17:51;33.35;;;15.90;;
79204;SDS011;68632;47.512;19.104;2023-12-20T01:18:54;42.80;;;16.80;;
79204;SDS011;68632;47.512;19.104;2023-12-20T01:19:56;37.33;;;15.45;;
79204;SDS011;68632;47.512;19.104;2023-12-20T01:21:01;39.78;;;16.00;;
79204;SDS011;68632;47.512;19.104;2023-12-20T01:22:05;38.10;;;16.67;;
79204;SDS011;68632;47.512;19.104;2023-12-20T01:23:07;30.58;;;13.20;;
79204;SDS011;68632;47.512;19.104;2023-12-20T01:24:09;39.22;;;14.20;;
79204;SDS011;68632;47.512;19.104;2023-12-20T01:25:11;37.13;;;15.90;;
79204;SDS011;68632;47.512;19.104;2023-12-20T01:26:14;38.83;;;15.85;;
79204;SDS011;68632;47.512;19.104;2023-12-20T01:27:16;32.70;;;14.40;;
79204;SDS011;68632;47.512;19.104;2023-12-20T01:28:19;37.10;;;16.33;;
79204;SDS011;68632;47.512;19.104;2023-12-20T01:29:21;42.15;;;16.77;;
79204;SDS011;68632;47.512;19.104;2023-12-20T01:30:24;32.97;;;16.02;;
79204;SDS011;68632;47.512;19.104;2023-12-20T01:31:26;35.38;;;14.30;;
79204;SDS011;68632;47.512;19.104;2023-12-20T01:32:29;44.25;;;16.75;;
79204;SDS011;68632;47.512;19.104;2023-12-20T01:33:31;33.53;;;15.18;;
79204;SDS011;68632;47.512;19.104;2023-12-20T01:34:33;40.47;;;17.60;;
79204;SDS011;68632;47.512;19.104;2023-12-20T01:35:35;31.98;;;14.23;;
79204;SDS011;68632;47.512;19.104;2023-12-20T01:36:38;49.92;;;18.85;;
79204;SDS011;68632;47.512;19.104;2023-12-20T01:37:40;45.97;;;17.98;;
79204;SDS011;68632;47.512;19.104;2023-12-20T01:38:42;36.97;;;15.60;;
79204;SDS011;68632;47.512;19.104;2023-12-20T01:39:44;36.53;;;17.45;;
79204;SDS011;68632;47.512;19.104;2023-12-20T01:40:47;44.70;;;17.88;;
79204;SDS011;68632;47.512;19.104;2023-12-20T01:41:49;34.50;;;14.45;;
79204;SDS011;68632;47.512;19.104;2023-12-20T01:43:00;36.65;;;16.20;;
79204;SDS011;68632;47.512;19.104;2023-12-20T01:44:04;41.42;;;17.05;;
79204;SDS011;68632;47.512;19.104;2023-12-20T01:45:06;33.10;;;14.27;;
79204;SDS011;68632;47.512;19.104;2023-12-20T01:46:08;41.53;;;16.30;;
79204;SDS011;68632;47.512;19.104;2023-12-20T01:47:11;33.83;;;14.25;;
79204;SDS011;68632;47.512;19.104;2023-12-20T01:48:14;40.17;;;16.45;;
79204;SDS011;68632;47.512;19.104;2023-12-20T01:49:18;32.67;;;14.10;;
79204;SDS011;68632;47.512;19.104;2023-12-20T01:50:20;41.80;;;18.45;;
79204;SDS011;68632;47.512;19.104;2023-12-20T01:51:23;42.47;;;18.50;;
79204;SDS011;68632;47.512;19.104;2023-12-20T01:52:29;40.60;;;17.80;;
79204;SDS011;68632;47.512;19.104;2023-12-20T01:53:31;41.95;;;17.23;;
79204;SDS011;68632;47.512;19.104;2023-12-20T01:54:34;37.25;;;15.60;;
79204;SDS011;68632;47.512;19.104;2023-12-20T01:55:38;41.17;;;15.98;;
79204;SDS011;68632;47.512;19.104;2023-12-20T01:56:41;28.33;;;12.60;;
79204;SDS011;68632;47.512;19.104;2023-12-20T01:57:44;38.67;;;14.90;;
79204;SDS011;68632;47.512;19.104;2023-12-20T01:58:47;37.80;;;16.63;;
79204;SDS011;68632;47.512;19.104;2023-12-20T01:59:49;38.78;;;16.00;;
79204;SDS011;68632;47.512;19.104;2023-12-20T02:00:51;50.72;;;18.73;;
79204;SDS011;68632;47.512;19.104;2023-12-20T02:01:54;46.90;;;16.50;;
79204;SDS011;68632;47.512;19.104;2023-12-20T02:02:56;42.53;;;15.43;;
79204;SDS011;68632;47.512;19.104;2023-12-20T02:04:02;46.45;;;16.30;;
79204;SDS011;68632;47.512;19.104;2023-12-20T02:05:05;40.30;;;15.82;;
79204;SDS011;68632;47.512;19.104;2023-12-20T02:06:08;39.50;;;16.98;;
79204;SDS011;68632;47.512;19.104;2023-12-20T02:07:11;46.63;;;15.25;;
79204;SDS011;68632;47.512;19.104;2023-12-20T02:08:13;34.30;;;15.30;;
79204;SDS011;68632;47.512;19.104;2023-12-20T02:09:16;35.88;;;15.80;;
79204;SDS011;68632;47.512;19.104;2023-12-20T02:10:18;33.78;;;15.38;;
79204;SDS011;68632;47.512;19.104;2023-12-20T02:11:21;41.50;;;17.58;;
79204;SDS011;68632;47.512;19.104;2023-12-20T02:12:23;44.67;;;17.58;;
79204;SDS011;68632;47.512;19.104;2023-12-20T02:13:25;43.58;;;16.30;;
79204;SDS011;68632;47.512;19.104;2023-12-20T02:14:28;42.45;;;16.35;;
79204;SDS011;68632;47.512;19.104;2023-12-20T02:15:30;40.90;;;15.82;;
79204;SDS011;68632;47.512;19.104;2023-12-20T02:16:33;44.65;;;16.38;;
79204;SDS011;68632;47.512;19.104;2023-12-20T02:17:35;37.80;;;15.63;;
79204;SDS011;68632;47.512;19.104;2023-12-20T02:18:38;42.10;;;18.30;;
79204;SDS011;68632;47.512;19.104;2023-12-20T02:19:41;44.05;;;18.58;;
79204;SDS011;68632;47.512;19.104;2023-12-20T02:20:43;45.58;;;17.75;;
79204;SDS011;68632;47.512;19.104;2023-12-20T02:21:45;43.45;;;16.92;;
79204;SDS011;68632;47.512;19.104;2023-12-20T02:22:47;46.33;;;17.77;;
79204;SDS011;68632;47.512;19.104;2023-12-20T02:23:50;45.63;;;17.08;;
79204;SDS011;68632;47.512;19.104;2023-12-20T02:24:52;32.33;;;14.85;;
79204;SDS011;68632;47.512;19.104;2023-12-20T02:25:54;45.22;;;17.83;;
79204;SDS011;68632;47.512;19.104;2023-12-20T02:26:56;38.15;;;15.98;;
79204;SDS011;68632;47.512;19.104;2023-12-20T02:27:59;42.28;;;17.05;;
79204;SDS011;68632;47.512;19.104;2023-12-20T02:29:01;44.90;;;17.38;;
79204;SDS011;68632;47.512;19.104;2023-12-20T02:30:04;46.45;;;16.52;;
79204;SDS011;68632;47.512;19.104;2023-12-20T02:31:07;38.92;;;16.67;;
79204;SDS011;68632;47.512;19.104;2023-12-20T02:32:09;43.28;;;16.70;;
79204;SDS011;68632;47.512;19.104;2023-12-20T02:33:12;43.63;;;18.08;;
79204;SDS011;68632;47.512;19.104;2023-12-20T02:34:14;49.50;;;16.42;;
79204;SDS011;68632;47.512;19.104;2023-12-20T02:35:16;46.25;;;19.35;;
79204;SDS011;68632;47.512;19.104;2023-12-20T02:36:18;42.15;;;17.13;;
79204;SDS011;68632;47.512;19.104;2023-12-20T02:37:21;41.90;;;17.52;;
79204;SDS011;68632;47.512;19.104;2023-12-20T02:38:23;49.58;;;17.02;;
79204;SDS011;68632;47.512;19.104;2023-12-20T02:39:25;42.08;;;18.58;;
79204;SDS011;68632;47.512;19.104;2023-12-20T02:40:27;44.80;;;18.63;;
79204;SDS011;68632;47.512;19.104;2023-12-20T02:41:30;44.97;;;19.25;;
79204;SDS011;68632;47.512;19.104;2023-12-20T02:42:32;44.65;;;16.73;;
79204;SDS011;68632;47.512;19.104;2023-12-20T02:43:34;30.55;;;14.85;;
79204;SDS011;68632;47.512;19.104;2023-12-20T02:44:36;39.10;;;18.75;;
79204;SDS011;68632;47.512;19.104;2023-12-20T02:45:38;42.35;;;16.48;;
79204;SDS011;68632;47.512;19.104;2023-12-20T02:46:40;46.92;;;18.67;;
79204;SDS011;68632;47.512;19.104;2023-12-20T02:47:43;42.28;;;17.65;;
79204;SDS011;68632;47.512;19.104;2023-12-20T02:48:45;40.22;;;17.48;;
79204;SDS011;68632;47.512;19.104;2023-12-20T02:49:49;42.47;;;17.45;;
79204;SDS011;68632;47.512;19.104;2023-12-20T02:50:52;43.70;;;18.92;;
79204;SDS011;68632;47.512;19.104;2023-12-20T02:51:54;34.90;;;16.77;;
79204;SDS011;68632;47.512;19.104;2023-12-20T02:52:56;37.85;;;16.95;;
79204;SDS011;68632;47.512;19.104;2023-12-20T02:53:58;42.17;;;15.85;;
79204;SDS011;68632;47.512;19.104;2023-12-20T02:55:01;42.60;;;17.40;;
79204;SDS011;68632;47.512;19.104;2023-12-20T02:56:03;37.05;;;16.20;;
79204;SDS011;68632;47.512;19.104;2023-12-20T02:57:06;36.85;;;16.88;;
79204;SDS011;68632;47.512;19.104;2023-12-20T02:58:08;38.08;;;17.20;;
79204;SDS011;68632;47.512;19.104;2023-12-20T02:59:10;39.28;;;17.00;;
79204;SDS011;68632;47.512;19.104;2023-12-20T03:00:12;42.90;;;18.08;;
79204;SDS011;68632;47.512;19.104;2023-12-20T03:01:15;38.42;;;18.00;;
79204;SDS011;68632;47.512;19.104;2023-12-20T03:02:18;50.35;;;19.80;;
79204;SDS011;68632;47.512;19.104;2023-12-20T03:03:20;41.28;;;18.25;;
79204;SDS011;68632;47.512;19.104;2023-12-20T03:04:22;42.05;;;18.63;;
79204;SDS011;68632;47.512;19.104;2023-12-20T03:05:24;45.13;;;19.35;;
79204;SDS011;68632;47.512;19.104;2023-12-20T03:06:27;52.53;;;19.20;;
79204;SDS011;68632;47.512;19.104;2023-12-20T03:07:29;39.28;;;17.85;;
79204;SDS011;68632;47.512;19.104;2023-12-20T03:08:31;50.95;;;19.10;;
79204;SDS011;68632;47.512;19.104;2023-12-20T03:09:33;38.88;;;17.00;;
79204;SDS011;68632;47.512;19.104;2023-12-20T03:10:55;37.53;;;18.23;;
79204;SDS011;68632;47.512;19.104;2023-12-20T03:11:58;48.60;;;19.00;;
79204;SDS011;68632;47.512;19.104;2023-12-20T03:13:00;43.42;;;17.88;;
79204;SDS011;68632;47.512;19.104;2023-12-20T03:14:02;48.22;;;18.75;;
79204;SDS011;68632;47.512;19.104;2023-12-20T03:15:04;41.22;;;17.52;;
79204;SDS011;68632;47.512;19.104;2023-12-20T03:16:10;41.25;;;18.90;;
79204;SDS011;68632;47.512;19.104;2023-12-20T03:17:13;42.55;;;18.15;;
79204;SDS011;68632;47.512;19.104;2023-12-20T03:18:15;46.45;;;19.45;;
79204;SDS011;68632;47.512;19.104;2023-12-20T03:19:17;46.15;;;18.35;;
79204;SDS011;68632;47.512;19.104;2023-12-20T03:20:20;42.40;;;18.02;;
79204;SDS011;68632;47.512;19.104;2023-12-20T03:21:23;53.58;;;19.70;;
79204;SDS011;68632;47.512;19.104;2023-12-20T03:22:25;50.28;;;19.05;;
79204;SDS011;68632;47.512;19.104;2023-12-20T03:23:27;50.42;;;20.30;;
79204;SDS011;68632;47.512;19.104;2023-12-20T03:24:29;46.28;;;19.67;;
79204;SDS011;68632;47.512;19.104;2023-12-20T03:25:31;48.03;;;20.42;;
79204;SDS011;68632;47.512;19.104;2023-12-20T03:26:34;49.08;;;18.50;;
79204;SDS011;68632;47.512;19.104;2023-12-20T03:27:39;43.75;;;17.58;;
79204;SDS011;68632;47.512;19.104;2023-12-20T03:28:41;52.28;;;19.13;;
79204;SDS011;68632;47.512;19.104;2023-12-20T03:29:43;51.13;;;20.38;;
79204;SDS011;68632;47.512;19.104;2023-12-20T03:30:45;46.20;;;19.45;;
79204;SDS011;68632;47.512;19.104;2023-12-20T03:31:48;52.85;;;20.23;;
79204;SDS011;68632;47.512;19.104;2023-12-20T03:32:50;47.33;;;20.70;;
79204;SDS011;68632;47.512;19.104;2023-12-20T03:33:52;44.90;;;20.90;;
79204;SDS011;68632;47.512;19.104;2023-12-20T03:34:55;51.42;;;20.58;;
79204;SDS011;68632;47.512;19.104;2023-12-20T03:35:58;48.53;;;20.45;;
79204;SDS011;68632;47.512;19.104;2023-12-20T03:37:00;51.55;;;20.65;;
79204;SDS011;68632;47.512;19.104;2023-12-20T03:38:02;53.90;;;21.95;;
79204;SDS011;68632;47.512;19.104;2023-12-20T03:39:04;46.08;;;18.90;;
79204;SDS011;68632;47.512;19.104;2023-12-20T03:40:07;54.17;;;20.85;;
79204;SDS011;68632;47.512;19.104;2023-12-20T03:41:09;55.20;;;19.15;;
79204;SDS011;68632;47.512;19.104;2023-12-20T03:42:11;45.53;;;17.98;;
79204;SDS011;68632;47.512;19.104;2023-12-20T03:43:15;49.05;;;18.92;;
79204;SDS011;68632;47.512;19.104;2023-12-20T03:44:17;50.38;;;20.20;;
79204;SDS011;68632;47.512;19.104;2023-12-20T03:45:19;41.33;;;18.45;;
79204;SDS011;68632;47.512;19.104;2023-12-20T03:46:22;43.25;;;16.15;;
79204;SDS011;68632;47.512;19.104;2023-12-20T03:47:24;43.88;;;18.77;;
79204;SDS011;68632;47.512;19.104;2023-12-20T03:48:26;50.42;;;20.35;;
79204;SDS011;68632;47.512;19.104;2023-12-20T03:49:28;44.22;;;18.85;;
79204;SDS011;68632;47.512;19.104;2023-12-20T03:50:31;54.92;;;19.50;;
79204;SDS011;68632;47.512;19.104;2023-12-20T03:51:33;40.47;;;18.60;;
79204;SDS011;68632;47.512;19.104;2023-12-20T03:52:35;45.78;;;18.95;;
79204;SDS011;68632;47.512;19.104;2023-12-20T03:53:37;45.30;;;20.00;;
79204;SDS011;68632;47.512;19.104;2023-12-20T03:54:41;52.50;;;20.58;;
79204;SDS011;68632;47.512;19.104;2023-12-20T03:55:46;51.22;;;19.42;;
79204;SDS011;68632;47.512;19.104;2023-12-20T03:56:48;55.50;;;20.50;;
79204;SDS011;68632;47.512;19.104;2023-12-20T03:57:50;56.63;;;20.75;;
79204;SDS011;68632;47.512;19.104;2023-12-20T03:58:52;53.97;;;18.52;;
79204;SDS011;68632;47.512;19.104;2023-12-20T03:59:54;53.45;;;21.65;;
79204;SDS011;68632;47.512;19.104;2023-12-20T04:00:56;42.72;;;18.55;;
79204;SDS011;68632;47.512;19.104;2023-12-20T04:01:59;51.65;;;20.63;;
79204;SDS011;68632;47.512;19.104;2023-12-20T04:03:01;52.50;;;19.05;;
79204;SDS011;68632;47.512;19.104;2023-12-20T04:04:03;54.10;;;19.35;;
79204;SDS011;68632;47.512;19.104;2023-12-20T04:05:06;48.55;;;17.83;;
79204;SDS011;68632;47.512;19.104;2023-12-20T04:06:09;40.22;;;18.40;;
79204;SDS011;68632;47.512;19.104;2023-12-20T04:07:11;44.40;;;19.55;;
79204;SDS011;68632;47.512;19.104;2023-12-20T04:08:14;43.53;;;18.63;;
79204;SDS011;68632;47.512;19.104;2023-12-20T04:09:16;47.42;;;19.50;;
79204;SDS011;68632;47.512;19.104;2023-12-20T04:10:18;48.58;;;18.73;;
79204;SDS011;68632;47.512;19.104;2023-12-20T04:11:20;45.63;;;17.02;;
79204;SDS011;68632;47.512;19.104;2023-12-20T04:12:22;46.55;;;19.13;;
79204;SDS011;68632;47.512;19.104;2023-12-20T04:13:25;49.53;;;17.73;;
79204;SDS011;68632;47.512;19.104;2023-12-20T04:14:27;52.97;;;18.60;;
79204;SDS011;68632;47.512;19.104;2023-12-20T04:15:29;46.63;;;18.45;;
79204;SDS011;68632;47.512;19.104;2023-12-20T04:16:31;41.22;;;17.42;;
79204;SDS011;68632;47.512;19.104;2023-12-20T04:17:33;44.38;;;18.85;;
79204;SDS011;68632;47.512;19.104;2023-12-20T04:18:35;26.00;;;11.52;;
79204;SDS011;68632;47.512;19.104;2023-12-20T04:19:38;39.13;;;16.75;;
79204;SDS011;68632;47.512;19.104;2023-12-20T04:20:41;48.42;;;18.40;;
79204;SDS011;68632;47.512;19.104;2023-12-20T04:21:43;40.15;;;14.70;;
79204;SDS011;68632;47.512;19.104;2023-12-20T04:22:45;37.22;;;16.27;;
79204;SDS011;68632;47.512;19.104;2023-12-20T04:23:47;33.60;;;15.85;;
79204;SDS011;68632;47.512;19.104;2023-12-20T04:24:50;37.78;;;17.15;;
79204;SDS011;68632;47.512;19.104;2023-12-20T04:25:52;42.53;;;17.05;;
79204;SDS011;68632;47.512;19.104;2023-12-20T04:26:55;40.45;;;15.55;;
79204;SDS011;68632;47.512;19.104;2023-12-20T04:27:57;41.08;;;16.60;;
79204;SDS011;68632;47.512;19.104;2023-12-20T04:28:59;48.55;;;17.98;;
79204;SDS011;68632;47.512;19.104;2023-12-20T04:30:01;39.30;;;15.45;;
79204;SDS011;68632;47.512;19.104;2023-12-20T04:31:04;42.45;;;17.33;;
79204;SDS011;68632;47.512;19.104;2023-12-20T04:32:06;30.80;;;14.57;;
79204;SDS011;68632;47.512;19.104;2023-12-20T04:33:08;40.38;;;14.75;;
79204;SDS011;68632;47.512;19.104;2023-12-20T04:34:10;42.15;;;18.35;;
79204;SDS011;68632;47.512;19.104;2023-12-20T04:35:13;40.67;;;17.83;;
79204;SDS011;68632;47.512;19.104;2023-12-20T04:36:15;54.25;;;18.63;;
79204;SDS011;68632;47.512;19.104;2023-12-20T04:37:17;39.78;;;17.02;;
79204;SDS011;68632;47.512;19.104;2023-12-20T04:38:20;45.20;;;18.70;;
79204;SDS011;68632;47.512;19.104;2023-12-20T04:39:22;40.50;;;16.02;;
79204;SDS011;68632;47.512;19.104;2023-12-20T04:40:24;39.55;;;16.98;;
79204;SDS011;68632;47.512;19.104;2023-12-20T04:41:26;44.95;;;18.83;;
79204;SDS011;68632;47.512;19.104;2023-12-20T04:42:29;43.92;;;19.52;;
79204;SDS011;68632;47.512;19.104;2023-12-20T04:43:31;48.80;;;18.60;;
79204;SDS011;68632;47.512;19.104;2023-12-20T04:44:34;45.00;;;17.35;;
79204;SDS011;68632;47.512;19.104;2023-12-20T04:45:36;44.53;;;18.20;;
79204;SDS011;68632;47.512;19.104;2023-12-20T04:46:38;53.50;;;21.05;;
79204;SDS011;68632;47.512;19.104;2023-12-20T04:47:41;47.67;;;17.77;;
79204;SDS011;68632;47.512;19.104;2023-12-20T04:48:44;47.20;;;18.90;;
79204;SDS011;68632;47.512;19.104;2023-12-20T04:49:46;30.38;;;16.05;;
79204;SDS011;68632;47.512;19.104;2023-12-20T04:50:49;32.38;;;14.30;;
79204;SDS011;68632;47.512;19.104;2023-12-20T04:51:51;52.20;;;18.75;;
79204;SDS011;68632;47.512;19.104;2023-12-20T04:52:53;43.03;;;19.05;;
79204;SDS011;68632;47.512;19.104;2023-12-20T04:53:55;43.67;;;18.60;;
79204;SDS011;68632;47.512;19.104;2023-12-20T04:54:57;44.17;;;18.95;;
79204;SDS011;68632;47.512;19.104;2023-12-20T04:56:01;47.15;;;18.90;;
79204;SDS011;68632;47.512;19.104;2023-12-20T04:57:03;49.13;;;19.17;;
79204;SDS011;68632;47.512;19.104;2023-12-20T04:58:05;48.53;;;19.05;;
79204;SDS011;68632;47.512;19.104;2023-12-20T04:59:08;55.50;;;19.45;;
79204;SDS011;68632;47.512;19.104;2023-12-20T05:00:10;50.47;;;18.83;;
79204;SDS011;68632;47.512;19.104;2023-12-20T05:01:13;41.13;;;18.48;;
79204;SDS011;68632;47.512;19.104;2023-12-20T05:02:15;45.90;;;18.80;;
79204;SDS011;68632;47.512;19.104;2023-12-20T05:03:17;51.45;;;19.95;;
79204;SDS011;68632;47.512;19.104;2023-12-20T05:04:19;44.80;;;18.98;;
79204;SDS011;68632;47.512;19.104;2023-12-20T05:05:22;40.65;;;16.90;;
79204;SDS011;68632;47.512;19.104;2023-12-20T05:06:24;43.78;;;18.63;;
79204;SDS011;68632;47.512;19.104;2023-12-20T05:07:26;49.17;;;19.13;;
79204;SDS011;68632;47.512;19.104;2023-12-20T05:08:29;50.90;;;19.00;;
79204;SDS011;68632;47.512;19.104;2023-12-20T05:09:31;42.60;;;17.75;;
79204;SDS011;68632;47.512;19.104;2023-12-20T05:10:33;45.28;;;19.15;;
79204;SDS011;68632;47.512;19.104;2023-12-20T05:11:36;48.97;;;18.80;;
79204;SDS011;68632;47.512;19.104;2023-12-20T05:12:38;47.75;;;19.30;;
79204;SDS011;68632;47.512;19.104;2023-12-20T05:13:41;45.85;;;18.67;;
79204;SDS011;68632;47.512;19.104;2023-12-20T05:14:51;49.03;;;20.42;;
79204;SDS011;68632;47.512;19.104;2023-12-20T05:15:54;50.67;;;20.13;;
79204;SDS011;68632;47.512;19.104;2023-12-20T05:16:56;47.35;;;20.15;;
79204;SDS011;68632;47.512;19.104;2023-12-20T05:17:58;57.80;;;21.20;;
79204;SDS011;68632;47.512;19.104;2023-12-20T05:19:00;55.53;;;19.38;;
79204;SDS011;68632;47.512;19.104;2023-12-20T05:20:08;49.80;;;20.30;;
79204;SDS011;68632;47.512;19.104;2023-12-20T05:21:10;46.50;;;19.00;;
79204;SDS011;68632;47.512;19.104;2023-12-20T05:22:13;47.20;;;20.10;;
79204;SDS011;68632;47.512;19.104;2023-12-20T05:23:15;41.63;;;17.98;;
79204;SDS011;68632;47.512;19.104;2023-12-20T05:24:17;50.30;;;19.70;;
79204;SDS011;68632;47.512;19.104;2023-12-20T05:25:19;43.80;;;18.77;;
79204;SDS011;68632;47.512;19.104;2023-12-20T05:26:21;46.95;;;17.13;;
79204;SDS011;68632;47.512;19.104;2023-12-20T05:27:24;47.53;;;18.85;;
79204;SDS011;68632;47.512;19.104;2023-12-20T05:28:26;45.28;;;18.42;;
79204;SDS011;68632;47.512;19.104;2023-12-20T05:29:28;50.03;;;19.65;;
79204;SDS011;68632;47.512;19.104;2023-12-20T05:30:31;59.20;;;20.98;;
79204;SDS011;68632;47.512;19.104;2023-12-20T05:31:33;44.40;;;18.50;;
79204;SDS011;68632;47.512;19.104;2023-12-20T05:32:35;44.60;;;20.50;;
79204;SDS011;68632;47.512;19.104;2023-12-20T05:33:37;52.83;;;20.85;;
79204;SDS011;68632;47.512;19.104;2023-12-20T05:34:40;60.35;;;21.13;;
79204;SDS011;68632;47.512;19.104;2023-12-20T05:35:42;48.50;;;19.90;;
79204;SDS011;68632;47.512;19.104;2023-12-20T05:36:44;46.75;;;18.63;;
79204;SDS011;68632;47.512;19.104;2023-12-20T05:37:46;44.00;;;16.60;;
79204;SDS011;68632;47.512;19.104;2023-12-20T05:38:49;46.85;;;18.17;;
79204;SDS011;68632;47.512;19.104;2023-12-20T05:39:51;40.75;;;17.75;;
79204;SDS011;68632;47.512;19.104;2023-12-20T05:40:53;54.88;;;19.85;;
79204;SDS011;68632;47.512;19.104;2023-12-20T05:41:55;49.45;;;18.13;;
79204;SDS011;68632;47.512;19.104;2023-12-20T05:42:58;45.28;;;17.50;;
79204;SDS011;68632;47.512;19.104;2023-12-20T05:44:00;44.20;;;18.67;;
79204;SDS011;68632;47.512;19.104;2023-12-20T05:45:02;56.10;;;19.15;;
79204;SDS011;68632;47.512;19.104;2023-12-20T05:46:04;48.22;;;20.83;;
79204;SDS011;68632;47.512;19.104;2023-12-20T05:47:07;54.92;;;19.38;;
79204;SDS011;68632;47.512;19.104;2023-12-20T05:48:09;44.67;;;18.75;;
79204;SDS011;68632;47.512;19.104;2023-12-20T05:49:11;50.78;;;19.95;;
79204;SDS011;68632;47.512;19.104;2023-12-20T05:50:14;48.90;;;20.25;;
79204;SDS011;68632;47.512;19.104;2023-12-20T05:51:17;46.95;;;19.00;;
79204;SDS011;68632;47.512;19.104;2023-12-20T05:52:19;47.50;;;17.38;;
79204;SDS011;68632;47.512;19.104;2023-12-20T05:53:21;52.70;;;21.27;;
79204;SDS011;68632;47.512;19.104;2023-12-20T05:54:24;47.60;;;19.75;;
79204;SDS011;68632;47.512;19.104;2023-12-20T05:55:26;41.00;;;17.83;;
79204;SDS011;68632;47.512;19.104;2023-12-20T05:56:28;48.10;;;19.60;;
79204;SDS011;68632;47.512;19.104;2023-12-20T05:57:30;41.67;;;18.67;;
79204;SDS011;68632;47.512;19.104;2023-12-20T05:58:33;48.38;;;18.73;;
79204;SDS011;68632;47.512;19.104;2023-12-20T05:59:35;52.22;;;20.67;;
79204;SDS011;68632;47.512;19.104;2023-12-20T06:00:37;50.70;;;20.95;;
79204;SDS011;68632;47.512;19.104;2023-12-20T06:01:40;47.45;;;18.67;;